Time;durP1;ratioP1;P1;durP2;ratioP2;P2;SDS_P1;SDS_P2;PMS_P1;PMS_P2;Temp;Humidity;BMP_temperature;BMP_pressure;BME280_temperature;BME280_humidity;BME280_pressure;Samples;Min_cycle;Max_cycle;Signal;HPM_P1;HPM_P2
2023/07/08 00:01:09;;;;;;;1.90;1.90;;;23.10;71.10;;;;;;5070185;28;43615;-73
2023/07/08 00:03:37;;;;;;;2.60;2.50;;;23.10;71.30;;;;;;5070162;28;43454;-75
2023/07/08 00:06:05;;;;;;;2.23;2.23;;;23.10;71.40;;;;;;5069915;28;43324;-75
2023/07/08 00:08:33;;;;;;;2.50;2.50;;;23.10;71.10;;;;;;5069483;28;43491;-75
2023/07/08 00:11:01;;;;;;;2.57;2.47;;;23.20;70.70;;;;;;5070106;28;43575;-74
2023/07/08 00:13:29;;;;;;;2.47;2.43;;;23.30;70.30;;;;;;5070627;28;43467;-75
2023/07/08 00:15:59;;;;;;;2.27;2.27;;;23.40;70.30;;;;;;5069937;28;43715;-74
2023/07/08 00:18:27;;;;;;;2.40;2.40;;;23.30;70.20;;;;;;5069086;28;43511;-73
2023/07/08 00:20:55;;;;;;;2.10;2.10;;;23.30;70.40;;;;;;5070238;28;44096;-74
2023/07/08 00:23:23;;;;;;;2.40;2.40;;;23.20;70.60;;;;;;5068222;28;44866;-75
2023/07/08 00:25:51;;;;;;;2.13;2.13;;;23.20;70.80;;;;;;5070278;28;43851;-74
2023/07/08 00:28:20;;;;;;;2.50;2.40;;;23.20;70.80;;;;;;5068882;28;43597;-74
2023/07/08 00:30:49;;;;;;;2.40;2.30;;;23.20;70.80;;;;;;5068809;28;46605;-75
2023/07/08 00:33:18;;;;;;;2.33;2.30;;;23.20;70.90;;;;;;5084956;28;44624;-76
2023/07/08 00:35:46;;;;;;;2.20;2.20;;;23.10;71.20;;;;;;5070008;28;43462;-74
2023/07/08 00:38:15;;;;;;;2.60;2.50;;;23.20;71.10;;;;;;5069602;28;43889;-73
2023/07/08 00:40:51;;;;;;;2.37;2.37;;;23.30;70.80;;;;;;5061812;28;45420;-73
2023/07/08 00:43:20;;;;;;;2.47;2.37;;;23.40;70.40;;;;;;5065547;28;44761;-73
2023/07/08 00:45:49;;;;;;;2.50;2.50;;;23.40;70.00;;;;;;5069255;28;43432;-74
2023/07/08 00:48:32;;;;;;;2.30;2.30;;;23.40;70.00;;;;;;5066254;28;43493;-74
2023/07/08 00:51:00;;;;;;;2.40;2.40;;;23.40;70.20;;;;;;5067951;28;44832;-74
2023/07/08 00:53:32;;;;;;;2.47;2.47;;;23.30;70.50;;;;;;5068875;28;43661;-74
2023/07/08 00:56:03;;;;;;;2.40;2.40;;;23.30;70.60;;;;;;5069931;28;43369;-75
2023/07/08 00:58:33;;;;;;;2.50;2.50;;;23.30;70.80;;;;;;5070253;28;43463;-74
2023/07/08 01:01:02;;;;;;;2.30;2.23;;;23.30;70.90;;;;;;5070745;28;45801;-72
2023/07/08 01:03:31;;;;;;;2.60;2.50;;;23.20;70.80;;;;;;5070258;22;45172;-72
2023/07/08 01:06:00;;;;;;;2.57;2.57;;;23.20;71.20;;;;;;5050350;28;43402;-71
2023/07/08 01:08:32;;;;;;;2.20;2.20;;;23.20;71.20;;;;;;5059290;28;43491;-71
2023/07/08 01:11:02;;;;;;;2.33;2.33;;;23.20;71.20;;;;;;5045526;28;45851;-71
2023/07/08 01:13:33;;;;;;;2.37;2.37;;;23.10;71.00;;;;;;5051399;28;44034;-71
2023/07/08 01:16:01;;;;;;;2.43;2.43;;;23.10;71.40;;;;;;5051539;28;43362;-72
2023/07/08 01:18:30;;;;;;;2.33;2.30;;;23.10;71.30;;;;;;5056063;28;43439;-71
2023/07/08 01:21:05;;;;;;;2.60;2.50;;;23.20;71.00;;;;;;5053814;28;45412;-71
2023/07/08 01:23:36;;;;;;;2.57;2.57;;;23.30;70.50;;;;;;5052261;28;43375;-71
2023/07/08 01:26:04;;;;;;;2.53;2.43;;;23.40;70.20;;;;;;5054348;28;43395;-71
2023/07/08 01:28:32;;;;;;;2.50;2.50;;;23.50;70.10;;;;;;5057504;28;43462;-71
2023/07/08 01:31:00;;;;;;;2.67;2.67;;;23.40;70.20;;;;;;5052628;28;45329;-71
2023/07/08 01:33:34;;;;;;;2.57;2.50;;;23.40;70.30;;;;;;5053683;28;43936;-71
2023/07/08 01:36:02;;;;;;;2.30;2.30;;;23.30;70.60;;;;;;5052680;28;43395;-71
2023/07/08 01:38:30;;;;;;;2.40;2.40;;;23.30;70.70;;;;;;5046752;28;43415;-71
2023/07/08 01:41:00;;;;;;;2.30;2.30;;;23.30;70.80;;;;;;5049148;28;44068;-71
2023/07/08 01:43:28;;;;;;;2.40;2.40;;;23.30;70.80;;;;;;5048010;28;44173;-72
2023/07/08 01:45:56;;;;;;;2.60;2.53;;;23.20;71.10;;;;;;5055507;28;43580;-72
2023/07/08 01:48:24;;;;;;;2.77;2.70;;;23.20;71.10;;;;;;5051548;28;43494;-73
2023/07/08 01:50:55;;;;;;;2.50;2.50;;;23.20;71.10;;;;;;5048502;28;43894;-73
2023/07/08 01:53:31;;;;;;;2.10;2.10;;;23.20;71.10;;;;;;5054782;28;43411;-71
2023/07/08 01:56:01;;;;;;;2.43;2.43;;;23.10;71.10;;;;;;5044648;28;43397;-71
2023/07/08 01:58:29;;;;;;;2.67;2.57;;;23.10;71.40;;;;;;5047219;28;43443;-71
2023/07/08 02:00:57;;;;;;;2.43;2.43;;;23.20;71.20;;;;;;5052104;28;45976;-71
2023/07/08 02:03:25;;;;;;;2.70;2.60;;;23.30;70.80;;;;;;5061637;28;43404;-71
2023/07/08 02:05:55;;;;;;;2.77;2.67;;;23.40;70.50;;;;;;5075908;28;43440;-71
2023/07/08 02:08:24;;;;;;;2.43;2.43;;;23.40;70.20;;;;;;5068361;28;43417;-72
2023/07/08 02:10:53;;;;;;;2.60;2.60;;;23.40;70.30;;;;;;5072224;28;43571;-71
2023/07/08 02:13:22;;;;;;;2.60;2.60;;;23.40;70.30;;;;;;5068395;28;44823;-73
2023/07/08 02:15:51;;;;;;;2.23;2.23;;;23.30;70.60;;;;;;5072008;28;43508;-71
2023/07/08 02:18:20;;;;;;;2.40;2.40;;;23.30;70.80;;;;;;5075573;28;43875;-71
2023/07/08 02:20:48;;;;;;;2.63;2.53;;;23.30;71.00;;;;;;5074004;28;43785;-70
2023/07/08 02:23:16;;;;;;;2.80;2.70;;;23.20;70.90;;;;;;5073619;28;43457;-71
2023/07/08 02:25:51;;;;;;;2.67;2.67;;;23.20;70.90;;;;;;5067827;28;43409;-71
2023/07/08 02:28:19;;;;;;;2.57;2.57;;;23.20;71.20;;;;;;5076937;28;43411;-72
2023/07/08 02:30:49;;;;;;;2.40;2.40;;;23.20;71.00;;;;;;5075205;27;43774;-71
2023/07/08 02:33:17;;;;;;;2.50;2.50;;;23.30;70.80;;;;;;5071528;28;43423;-70
2023/07/08 02:35:45;;;;;;;2.63;2.57;;;23.30;70.60;;;;;;5068411;28;43460;-70
2023/07/08 02:38:13;;;;;;;2.50;2.50;;;23.40;70.70;;;;;;5071099;28;43338;-69
2023/07/08 02:40:41;;;;;;;2.63;2.53;;;23.30;70.80;;;;;;5072362;28;43759;-70
2023/07/08 02:43:09;;;;;;;2.23;2.23;;;23.30;70.90;;;;;;5072090;28;43461;-70
2023/07/08 02:45:39;;;;;;;3.20;2.70;;;23.30;70.80;;;;;;5068195;28;43402;-70
2023/07/08 02:48:08;;;;;;;2.67;2.60;;;23.30;70.80;;;;;;5074722;28;43379;-71
2023/07/08 02:50:36;;;;;;;2.30;2.30;;;23.20;70.80;;;;;;5079770;28;45985;-70
2023/07/08 02:53:04;;;;;;;2.47;2.47;;;23.20;71.10;;;;;;5071339;28;43449;-71
2023/07/08 02:55:32;;;;;;;2.20;2.20;;;23.20;71.10;;;;;;5079496;28;43381;-70
2023/07/08 02:58:00;;;;;;;2.57;2.47;;;23.20;71.10;;;;;;5076194;28;43565;-70
2023/07/08 03:00:28;;;;;;;3.00;2.90;;;23.20;71.00;;;;;;5074218;28;43581;-70
2023/07/08 03:02:57;;;;;;;2.40;2.40;;;23.20;71.30;;;;;;5071843;28;44562;-70
2023/07/08 03:05:26;;;;;;;2.67;2.67;;;23.20;71.50;;;;;;5072169;28;43451;-70
2023/07/08 03:07:54;;;;;;;2.70;2.60;;;23.20;71.10;;;;;;5070777;28;43643;-70
2023/07/08 03:10:22;;;;;;;2.53;2.53;;;23.30;70.80;;;;;;5075289;28;45781;-71
2023/07/08 03:12:50;;;;;;;2.60;2.60;;;23.40;70.40;;;;;;5074932;28;43479;-71
2023/07/08 03:15:18;;;;;;;2.90;2.80;;;23.50;70.10;;;;;;5075138;28;43467;-70
2023/07/08 03:17:47;;;;;;;2.63;2.63;;;23.50;70.00;;;;;;5072074;28;43786;-70
2023/07/08 03:20:15;;;;;;;2.60;2.50;;;23.50;70.10;;;;;;5069118;28;45559;-70
2023/07/08 03:22:44;;;;;;;3.00;2.90;;;23.40;70.30;;;;;;5068326;28;43344;-70
2023/07/08 03:25:12;;;;;;;2.40;2.40;;;23.30;70.50;;;;;;5078006;28;43363;-68
2023/07/08 03:27:43;;;;;;;2.70;2.70;;;23.30;70.60;;;;;;5076933;28;43523;-72
2023/07/08 03:30:12;;;;;;;2.70;2.70;;;23.30;70.70;;;;;;5072230;28;43611;-72
2023/07/08 03:32:40;;;;;;;3.27;3.07;;;23.30;70.80;;;;;;5075806;28;43479;-71
2023/07/08 03:35:09;;;;;;;3.17;3.07;;;23.20;71.00;;;;;;5078503;28;43434;-71
2023/07/08 03:37:37;;;;;;;2.90;2.80;;;23.20;71.00;;;;;;5072772;28;43475;-72
2023/07/08 03:40:10;;;;;;;3.30;3.03;;;23.20;71.00;;;;;;5076182;28;44956;-71
2023/07/08 03:42:38;;;;;;;3.33;3.13;;;23.20;71.20;;;;;;5073578;28;44976;-72
2023/07/08 03:45:07;;;;;;;3.53;3.33;;;23.20;71.30;;;;;;5069820;28;43376;-72
2023/07/08 03:47:37;;;;;;;3.63;3.53;;;23.20;71.20;;;;;;5069615;28;43826;-73
2023/07/08 03:50:11;;;;;;;3.73;3.50;;;23.30;71.00;;;;;;5069411;28;44106;-72
2023/07/08 03:52:39;;;;;;;3.67;3.47;;;23.40;70.60;;;;;;5070340;28;43981;-72
2023/07/08 03:55:09;;;;;;;3.93;3.60;;;23.50;70.20;;;;;;5075568;28;43452;-71
2023/07/08 03:57:37;;;;;;;3.83;3.63;;;23.50;70.00;;;;;;5073618;28;43520;-72
2023/07/08 04:00:09;;;;;;;3.80;3.50;;;23.50;70.00;;;;;;5072545;28;46023;-71
2023/07/08 04:02:40;;;;;;;3.73;3.43;;;23.40;70.20;;;;;;5072205;28;43668;-71
2023/07/08 04:05:13;;;;;;;3.77;3.50;;;23.40;70.50;;;;;;5074202;28;43412;-73
2023/07/08 04:07:41;;;;;;;3.57;3.40;;;23.40;70.60;;;;;;5076733;28;43754;-72
2023/07/08 04:10:11;;;;;;;3.80;3.50;;;23.40;70.70;;;;;;5076480;28;43796;-71
2023/07/08 04:12:39;;;;;;;3.53;3.33;;;23.30;70.70;;;;;;5075998;28;43352;-71
2023/07/08 04:15:09;;;;;;;3.90;3.60;;;23.30;71.00;;;;;;5078286;28;43414;-72
2023/07/08 04:17:37;;;;;;;3.57;3.33;;;23.30;71.10;;;;;;5073269;28;43503;-71
2023/07/08 04:20:08;;;;;;;3.90;3.70;;;23.30;70.80;;;;;;5074962;28;43863;-72
2023/07/08 04:22:36;;;;;;;3.53;3.33;;;23.40;70.50;;;;;;5075152;28;43490;-71
2023/07/08 04:25:05;;;;;;;3.77;3.57;;;23.50;70.10;;;;;;5073449;28;43384;-71
2023/07/08 04:27:35;;;;;;;4.23;4.03;;;23.50;70.00;;;;;;5077789;28;43490;-72
2023/07/08 04:30:04;;;;;;;3.73;3.53;;;23.50;70.00;;;;;;5072182;28;43844;-71
2023/07/08 04:32:32;;;;;;;5.30;3.63;;;23.40;70.10;;;;;;5071112;28;43943;-72
2023/07/08 04:35:00;;;;;;;4.10;3.80;;;23.40;70.60;;;;;;5072272;28;43394;-72
2023/07/08 04:37:27;;;;;;;3.80;3.60;;;23.40;70.60;;;;;;5074536;28;43417;-72
2023/07/08 04:39:55;;;;;;;3.57;3.37;;;23.40;70.70;;;;;;5071128;28;46201;-72
2023/07/08 04:42:23;;;;;;;4.37;3.97;;;23.30;70.70;;;;;;5073212;28;43460;-71
2023/07/08 04:44:53;;;;;;;4.10;3.80;;;23.30;71.00;;;;;;5073262;28;43443;-72
2023/07/08 04:47:21;;;;;;;3.80;3.60;;;23.30;71.70;;;;;;5063299;28;43628;-72
2023/07/08 04:49:49;;;;;;;4.63;4.23;;;23.30;71.00;;;;;;5072959;28;43935;-71
2023/07/08 04:52:17;;;;;;;4.20;3.90;;;23.30;71.10;;;;;;5072023;28;44644;-71
2023/07/08 04:54:45;;;;;;;4.03;3.77;;;23.20;71.10;;;;;;5076318;28;43330;-73
2023/07/08 04:57:14;;;;;;;3.93;3.63;;;23.20;71.20;;;;;;5072689;28;43489;-71
2023/07/08 04:59:42;;;;;;;4.10;3.63;;;23.30;71.20;;;;;;5071756;28;43610;-71
2023/07/08 05:02:11;;;;;;;4.10;3.80;;;23.30;70.80;;;;;;5077416;28;44727;-72
2023/07/08 05:04:39;;;;;;;4.30;4.00;;;23.50;70.50;;;;;;5077062;28;43386;-72
2023/07/08 05:07:07;;;;;;;4.30;4.00;;;23.50;70.10;;;;;;5071791;28;43395;-72
2023/07/08 05:09:35;;;;;;;4.00;3.60;;;23.50;70.10;;;;;;5069352;28;45733;-71
2023/07/08 05:12:04;;;;;;;3.73;3.53;;;23.50;70.20;;;;;;5071963;28;43454;-71
2023/07/08 05:14:32;;;;;;;3.97;3.67;;;23.40;70.40;;;;;;5073703;28;43403;-71
2023/07/08 05:17:00;;;;;;;3.90;3.70;;;23.40;70.60;;;;;;5074972;28;43812;-72
2023/07/08 05:19:29;;;;;;;3.67;3.47;;;23.40;70.70;;;;;;5072760;28;45352;-72
2023/07/08 05:21:57;;;;;;;3.70;3.50;;;23.40;70.70;;;;;;5071767;28;44742;-71
2023/07/08 05:24:25;;;;;;;3.87;3.57;;;23.30;70.70;;;;;;5068151;28;43377;-71
2023/07/08 05:26:53;;;;;;;4.00;3.80;;;23.30;71.10;;;;;;5073918;28;44216;-72
2023/07/08 05:29:21;;;;;;;4.10;3.80;;;23.30;71.10;;;;;;5071297;28;43620;-72
2023/07/08 05:31:49;;;;;;;3.90;3.70;;;23.30;70.90;;;;;;5072578;28;43442;-71
2023/07/08 05:34:17;;;;;;;4.37;4.00;;;23.40;70.60;;;;;;5075453;28;44095;-71
2023/07/08 05:36:47;;;;;;;3.73;3.53;;;23.50;70.20;;;;;;5072365;28;43559;-71
2023/07/08 05:39:15;;;;;;;4.10;3.80;;;23.60;70.10;;;;;;5071109;28;43739;-72
2023/07/08 05:41:43;;;;;;;3.83;3.53;;;23.50;70.00;;;;;;5068643;28;44643;-72
2023/07/08 05:44:10;;;;;;;3.80;3.60;;;23.50;70.10;;;;;;5075111;28;43499;-71
2023/07/08 05:46:39;;;;;;;4.20;4.00;;;23.40;70.50;;;;;;5076010;28;43376;-71
2023/07/08 05:49:07;;;;;;;4.30;4.00;;;23.40;70.70;;;;;;5071804;28;43861;-71
2023/07/08 05:51:35;;;;;;;3.70;3.50;;;23.40;71.40;;;;;;5071190;28;44926;-71
2023/07/08 05:54:04;;;;;;;4.37;4.00;;;23.30;70.60;;;;;;5069640;28;43484;-71
2023/07/08 05:56:32;;;;;;;4.10;3.80;;;23.30;70.90;;;;;;5076961;28;44016;-71
2023/07/08 05:59:00;;;;;;;3.60;3.50;;;23.30;71.10;;;;;;5069496;28;45319;-71
2023/07/08 06:01:28;;;;;;;3.40;3.30;;;23.30;70.90;;;;;;5071803;28;43410;-72
2023/07/08 06:03:57;;;;;;;3.83;3.63;;;23.40;70.70;;;;;;5070082;28;43388;-72
2023/07/08 06:06:26;;;;;;;3.87;3.60;;;23.40;70.60;;;;;;5073775;28;43630;-72
2023/07/08 06:08:53;;;;;;;4.57;4.27;;;23.40;70.60;;;;;;5069919;28;46091;-72
2023/07/08 06:11:23;;;;;;;3.57;3.37;;;23.30;70.80;;;;;;5067193;28;44983;-72
2023/07/08 06:13:51;;;;;;;3.97;3.77;;;23.40;70.80;;;;;;5072599;28;43451;-71
2023/07/08 06:16:19;;;;;;;3.37;3.27;;;23.30;70.70;;;;;;5071191;28;43597;-71
2023/07/08 06:19:06;;;;;;;3.47;3.30;;;23.30;70.60;;;;;;5070888;28;43985;-71
2023/07/08 06:21:34;;;;;;;3.93;3.73;;;23.30;71.00;;;;;;5072686;28;43381;-71
2023/07/08 06:24:02;;;;;;;3.90;3.67;;;23.30;71.10;;;;;;5070129;28;43472;-71
2023/07/08 06:26:31;;;;;;;3.73;3.53;;;23.30;71.10;;;;;;5072420;28;43356;-71
2023/07/08 06:28:59;;;;;;;3.40;3.30;;;23.30;71.00;;;;;;5075464;28;43595;-72
2023/07/08 06:31:27;;;;;;;3.43;3.30;;;23.20;70.80;;;;;;5071816;28;43438;-72
2023/07/08 06:33:55;;;;;;;3.53;3.43;;;23.20;71.40;;;;;;5078681;28;43437;-72
2023/07/08 06:36:23;;;;;;;3.70;3.50;;;23.20;71.30;;;;;;5074497;28;43404;-71
2023/07/08 06:38:51;;;;;;;3.60;3.40;;;23.30;70.90;;;;;;5070180;28;43607;-72
2023/07/08 06:41:19;;;;;;;3.33;3.23;;;23.50;70.60;;;;;;5072088;28;43441;-71
2023/07/08 06:43:49;;;;;;;3.40;3.30;;;23.50;70.20;;;;;;5071129;28;43332;-71
2023/07/08 06:46:18;;;;;;;3.70;3.50;;;23.50;70.00;;;;;;5071477;28;43602;-71
2023/07/08 06:48:46;;;;;;;3.00;2.90;;;23.50;70.10;;;;;;5075275;28;44279;-72
2023/07/08 06:51:14;;;;;;;3.50;3.30;;;23.40;70.10;;;;;;5069207;28;44778;-72
2023/07/08 06:53:42;;;;;;;3.73;3.53;;;23.40;70.70;;;;;;5073193;28;43465;-72
2023/07/08 06:56:10;;;;;;;3.70;3.50;;;23.40;70.70;;;;;;5072667;28;43371;-72
2023/07/08 06:58:38;;;;;;;3.40;3.27;;;23.30;70.70;;;;;;5064895;28;43823;-71
2023/07/08 07:01:08;;;;;;;3.50;3.40;;;23.30;70.60;;;;;;5072834;28;43373;-71
2023/07/08 07:03:36;;;;;;;3.90;3.70;;;23.30;70.90;;;;;;5077659;27;44125;-72
2023/07/08 07:06:04;;;;;;;3.63;3.43;;;23.20;71.10;;;;;;5089129;27;43440;-72
2023/07/08 07:08:32;;;;;;;3.87;3.67;;;23.20;71.10;;;;;;5095073;27;44060;-71
2023/07/08 07:11:00;;;;;;;3.60;3.50;;;23.20;70.90;;;;;;5094462;27;43971;-71
2023/07/08 07:13:29;;;;;;;4.03;3.83;;;23.20;71.00;;;;;;5078007;27;43477;-72
2023/07/08 07:15:57;;;;;;;3.50;3.40;;;23.20;71.50;;;;;;5107191;27;43464;-71
2023/07/08 07:18:27;;;;;;;3.63;3.43;;;23.20;71.20;;;;;;5079746;27;46211;-72
2023/07/08 07:20:55;;;;;;;3.43;3.33;;;23.40;70.90;;;;;;5100875;27;43405;-72
2023/07/08 07:23:23;;;;;;;3.80;3.60;;;23.50;70.50;;;;;;5102072;27;43364;-72
2023/07/08 07:25:51;;;;;;;3.30;3.20;;;23.50;70.20;;;;;;5103653;27;43483;-72
2023/07/08 07:28:19;;;;;;;3.73;3.63;;;23.60;70.20;;;;;;5094827;27;43959;-72
2023/07/08 07:30:47;;;;;;;3.20;3.10;;;23.50;70.10;;;;;;5098521;27;43450;-71
2023/07/08 07:33:15;;;;;;;3.30;3.20;;;23.50;70.30;;;;;;5106318;27;43439;-72
2023/07/08 07:35:45;;;;;;;3.30;3.20;;;23.40;70.60;;;;;;5102202;27;43597;-72
2023/07/08 07:38:15;;;;;;;3.37;3.27;;;23.40;70.60;;;;;;5106517;27;43738;-71
2023/07/08 07:40:43;;;;;;;3.47;3.37;;;23.40;70.70;;;;;;5082062;27;44104;-71
2023/07/08 07:43:11;;;;;;;3.87;3.67;;;23.30;70.60;;;;;;5097623;27;43529;-72
2023/07/08 07:45:39;;;;;;;3.10;3.00;;;23.30;71.00;;;;;;5106719;27;44027;-72
2023/07/08 07:48:07;;;;;;;3.20;3.10;;;23.30;71.10;;;;;;5104655;27;44063;-71
2023/07/08 07:50:35;;;;;;;3.43;3.27;;;23.30;71.10;;;;;;5109201;27;43368;-73
2023/07/08 07:53:04;;;;;;;2.80;2.70;;;23.30;71.00;;;;;;5081770;28;43415;-72
2023/07/08 07:55:32;;;;;;;3.50;3.40;;;23.20;70.90;;;;;;5108160;27;43348;-71
2023/07/08 07:58:00;;;;;;;3.57;3.47;;;23.20;71.50;;;;;;5102416;27;43599;-71
2023/07/08 08:00:29;;;;;;;3.63;3.43;;;23.20;71.20;;;;;;5086972;27;44717;-72
2023/07/08 08:02:58;;;;;;;3.33;3.23;;;23.30;70.80;;;;;;5082998;27;43419;-72
2023/07/08 08:05:26;;;;;;;3.30;3.20;;;23.40;70.30;;;;;;5089002;27;43878;-72
2023/07/08 08:07:54;;;;;;;3.23;3.13;;;23.50;70.10;;;;;;5086480;27;45710;-71
2023/07/08 08:10:23;;;;;;;2.97;2.87;;;23.50;70.00;;;;;;5073500;27;44669;-72
2023/07/08 08:12:52;;;;;;;3.30;3.20;;;23.50;70.10;;;;;;5073782;27;43384;-72
2023/07/08 08:15:22;;;;;;;3.43;3.33;;;23.50;70.20;;;;;;5077570;28;43565;-71
2023/07/08 08:17:51;;;;;;;2.90;2.80;;;23.40;70.60;;;;;;5098323;27;43789;-71
2023/07/08 08:20:20;;;;;;;3.50;3.40;;;23.40;70.70;;;;;;5082782;28;44984;-71
2023/07/08 08:22:49;;;;;;;3.23;3.13;;;23.30;70.60;;;;;;5099948;27;43361;-71
2023/07/08 08:25:18;;;;;;;3.30;3.20;;;23.30;70.70;;;;;;5105148;27;43579;-72
2023/07/08 08:27:47;;;;;;;3.20;3.10;;;23.20;71.00;;;;;;5080305;27;46055;-72
2023/07/08 08:30:15;;;;;;;3.20;3.10;;;23.30;71.20;;;;;;5080962;27;44986;-71
2023/07/08 08:32:43;;;;;;;3.13;3.03;;;23.30;71.10;;;;;;5102255;27;43419;-71
2023/07/08 08:35:11;;;;;;;3.23;3.13;;;23.20;70.90;;;;;;5102479;27;43403;-71
2023/07/08 08:37:39;;;;;;;3.10;3.00;;;23.20;71.20;;;;;;5105188;27;43813;-71
2023/07/08 08:40:10;;;;;;;3.33;3.23;;;23.20;71.40;;;;;;5103299;27;44208;-71
2023/07/08 08:42:41;;;;;;;3.47;3.27;;;23.20;71.30;;;;;;5094754;27;43348;-71
2023/07/08 08:45:14;;;;;;;3.00;2.90;;;23.20;71.20;;;;;;5093899;27;43387;-71
2023/07/08 08:47:43;;;;;;;2.97;2.87;;;23.20;71.00;;;;;;5099725;27;44069;-72
2023/07/08 08:50:24;;;;;;;3.40;3.10;;;23.10;71.50;;;;;;5109084;27;43493;-71
2023/07/08 08:52:54;;;;;;;3.00;2.90;;;23.20;71.40;;;;;;5101702;27;43418;-71
2023/07/08 08:55:23;;;;;;;3.13;3.03;;;23.30;70.90;;;;;;5102893;27;43534;-72
2023/07/08 08:57:55;;;;;;;3.47;3.33;;;23.40;70.50;;;;;;5099380;27;44033;-71
2023/07/08 09:00:27;;;;;;;3.23;3.13;;;23.50;70.30;;;;;;5084392;27;44722;-72
2023/07/08 09:03:00;;;;;;;3.30;3.20;;;23.50;70.10;;;;;;5103888;27;44010;-73
2023/07/08 09:05:28;;;;;;;3.50;3.40;;;23.50;70.10;;;;;;5083633;27;44000;-72
2023/07/08 09:08:02;;;;;;;3.57;3.43;;;23.40;70.30;;;;;;5103293;27;43604;-71
2023/07/08 09:10:43;;;;;;;3.00;2.90;;;23.40;70.60;;;;;;5101421;27;43463;-71
2023/07/08 09:13:16;;;;;;;3.47;3.37;;;23.40;70.60;;;;;;5098152;27;43396;-71
2023/07/08 09:15:45;;;;;;;3.10;3.00;;;23.30;70.50;;;;;;5109668;27;43333;-72
2023/07/08 09:18:18;;;;;;;2.93;2.83;;;23.30;71.30;;;;;;5101523;27;43615;-72
2023/07/08 09:20:47;;;;;;;3.00;2.90;;;23.30;71.10;;;;;;5079514;27;45099;-71
2023/07/08 09:23:20;;;;;;;3.23;3.13;;;23.30;71.00;;;;;;5080278;27;43573;-72
2023/07/08 09:25:51;;;;;;;3.17;3.07;;;23.30;70.70;;;;;;5103648;27;43365;-71
2023/07/08 09:28:19;;;;;;;3.47;3.37;;;23.30;70.60;;;;;;5088390;27;44060;-72
2023/07/08 09:30:49;;;;;;;3.37;3.27;;;23.40;70.70;;;;;;5100164;27;43414;-72
2023/07/08 09:33:17;;;;;;;3.23;3.13;;;23.30;71.50;;;;;;5087300;27;43431;-71
2023/07/08 09:35:47;;;;;;;3.03;2.93;;;23.30;70.80;;;;;;5081944;27;44059;-73
2023/07/08 09:38:16;;;;;;;2.90;2.80;;;23.30;70.70;;;;;;5101997;27;43690;-71
2023/07/08 09:40:47;;;;;;;3.07;2.97;;;23.30;70.70;;;;;;5078335;28;44749;-71
2023/07/08 09:43:21;;;;;;;2.90;2.80;;;23.30;71.00;;;;;;5074879;27;43427;-73
2023/07/08 09:45:50;;;;;;;2.93;2.83;;;23.20;71.00;;;;;;5102304;27;43473;-72
2023/07/08 09:48:19;;;;;;;2.97;2.87;;;23.30;70.90;;;;;;5082383;27;45873;-72
2023/07/08 09:50:48;;;;;;;3.00;2.90;;;23.40;70.50;;;;;;5098834;27;43442;-72
2023/07/08 09:53:16;;;;;;;2.90;2.80;;;23.50;70.20;;;;;;5078012;28;43433;-72
2023/07/08 09:55:44;;;;;;;2.87;2.77;;;23.60;70.10;;;;;;5096051;27;43446;-73
2023/07/08 09:58:15;;;;;;;3.10;3.00;;;23.50;70.10;;;;;;5078783;27;45732;-72
2023/07/08 10:00:43;;;;;;;3.00;2.90;;;23.50;70.00;;;;;;5099385;27;43494;-73
2023/07/08 10:03:17;;;;;;;2.87;2.77;;;23.40;70.30;;;;;;5096242;27;43395;-72
2023/07/08 10:05:47;;;;;;;3.33;3.23;;;23.40;70.60;;;;;;5096870;27;43479;-72
2023/07/08 10:08:16;;;;;;;3.20;3.10;;;23.40;70.70;;;;;;5080884;27;45029;-72
2023/07/08 10:10:45;;;;;;;2.90;2.80;;;23.40;70.60;;;;;;5065876;27;44653;-72
2023/07/08 10:13:18;;;;;;;3.40;3.30;;;23.30;70.50;;;;;;5098977;27;43479;-71
2023/07/08 10:15:47;;;;;;;2.80;2.70;;;23.30;71.20;;;;;;5086913;27;43551;-72
2023/07/08 10:18:26;;;;;;;3.53;3.43;;;23.30;71.00;;;;;;5104801;27;43710;-73
2023/07/08 10:20:58;;;;;;;2.97;2.87;;;23.30;70.90;;;;;;5101880;27;43521;-72
2023/07/08 10:23:31;;;;;;;2.97;2.87;;;23.30;70.80;;;;;;5093798;27;43447;-72
2023/07/08 10:26:01;;;;;;;3.27;3.17;;;23.20;71.20;;;;;;5104093;27;43367;-72
2023/07/08 10:28:35;;;;;;;3.00;2.90;;;23.30;71.20;;;;;;5101362;27;43624;-71
2023/07/08 10:31:11;;;;;;;3.10;3.00;;;23.30;70.90;;;;;;5095910;27;43844;-71
2023/07/08 10:33:52;;;;;;;2.90;2.80;;;23.50;70.60;;;;;;5091999;27;43375;-73
2023/07/08 10:36:25;;;;;;;3.03;2.93;;;23.50;70.00;;;;;;5100939;27;43356;-71
2023/07/08 10:39:18;;;;;;;3.10;3.00;;;23.60;69.90;;;;;;5090823;27;43892;-71
2023/07/08 10:41:50;;;;;;;3.30;3.20;;;23.60;69.90;;;;;;5100186;27;43370;-72
2023/07/08 10:44:20;;;;;;;3.17;2.97;;;23.50;70.00;;;;;;5091474;27;43415;-72
2023/07/08 10:46:51;;;;;;;3.10;3.00;;;23.50;71.00;;;;;;5093848;27;43409;-72
2023/07/08 10:49:43;;;;;;;3.20;3.10;;;23.50;70.40;;;;;;5101507;27;43668;-72
2023/07/08 10:52:26;;;;;;;2.80;2.80;;;23.50;70.40;;;;;;5082265;27;43447;-72
2023/07/08 10:55:08;;;;;;;3.07;2.97;;;23.40;70.50;;;;;;5096449;27;44033;-72
2023/07/08 10:57:48;;;;;;;3.20;3.10;;;23.40;70.90;;;;;;5105137;27;43368;-72
2023/07/08 11:00:22;;;;;;;3.03;2.93;;;23.40;70.90;;;;;;5101839;27;43619;-72
2023/07/08 11:03:04;;;;;;;3.30;3.20;;;23.30;70.70;;;;;;5086390;27;44680;-71
2023/07/08 11:05:37;;;;;;;3.07;2.93;;;23.30;70.80;;;;;;5079637;27;43494;-72
2023/07/08 11:08:08;;;;;;;2.80;2.70;;;23.30;71.10;;;;;;5097612;27;43480;-72
2023/07/08 11:10:39;;;;;;;3.27;3.17;;;23.30;71.00;;;;;;5102074;27;44687;-72
2023/07/08 11:13:12;;;;;;;2.80;2.70;;;23.40;70.80;;;;;;5069681;27;44740;-73
2023/07/08 11:15:43;;;;;;;2.80;2.70;;;23.40;70.60;;;;;;5096775;27;43556;-72
2023/07/08 11:18:14;;;;;;;2.93;2.90;;;23.40;70.40;;;;;;5094057;27;43419;-72
2023/07/08 11:20:45;;;;;;;2.83;2.73;;;23.40;70.60;;;;;;5083183;27;45913;-72
2023/07/08 11:23:23;;;;;;;2.80;2.63;;;23.40;70.80;;;;;;5093128;27;44044;-72
2023/07/08 11:25:51;;;;;;;2.90;2.80;;;23.40;70.70;;;;;;5088180;27;43316;-72
2023/07/08 11:28:20;;;;;;;2.80;2.70;;;23.40;70.60;;;;;;5100888;27;43347;-72
2023/07/08 11:30:49;;;;;;;2.87;2.77;;;23.40;70.60;;;;;;5098716;27;43706;-71
2023/07/08 11:33:17;;;;;;;2.57;2.47;;;23.30;70.90;;;;;;5098201;27;43438;-72
2023/07/08 11:35:48;;;;;;;3.10;3.00;;;23.30;70.80;;;;;;5105966;27;44443;-70
2023/07/08 11:38:18;;;;;;;3.13;3.03;;;23.40;70.60;;;;;;5076445;27;43515;-73
2023/07/08 11:40:54;;;;;;;3.10;3.00;;;23.50;70.30;;;;;;5101569;27;43597;-72
2023/07/08 11:43:22;;;;;;;2.93;2.87;;;23.60;70.00;;;;;;5079391;27;44665;-72
2023/07/08 11:45:51;;;;;;;2.83;2.80;;;23.60;69.90;;;;;;5108202;27;43397;-73
2023/07/08 11:48:27;;;;;;;2.70;2.70;;;23.60;70.00;;;;;;5083987;27;43550;-72
2023/07/08 11:50:58;;;;;;;2.63;2.60;;;23.50;70.10;;;;;;5093653;27;43665;-72
2023/07/08 11:53:35;;;;;;;2.67;2.67;;;23.40;70.40;;;;;;5076690;27;43684;-71
2023/07/08 11:56:07;;;;;;;2.93;2.83;;;23.40;70.40;;;;;;5110071;27;43400;-71
2023/07/08 11:58:57;;;;;;;2.47;2.47;;;23.40;70.50;;;;;;5099600;27;43461;-72
2023/07/08 12:01:28;;;;;;;2.63;2.63;;;23.40;70.60;;;;;;5102105;27;43683;-72
2023/07/08 12:04:00;;;;;;;2.70;2.50;;;23.40;71.00;;;;;;5080784;27;44678;-71
2023/07/08 12:06:48;;;;;;;2.87;2.77;;;23.30;70.90;;;;;;5077926;28;43451;-72
2023/07/08 12:09:24;;;;;;;3.10;3.00;;;23.30;70.80;;;;;;5105783;27;43440;-72
2023/07/08 12:11:56;;;;;;;3.00;2.90;;;23.30;70.80;;;;;;5102353;27;43930;-71
2023/07/08 12:14:24;;;;;;;2.70;2.60;;;23.30;71.20;;;;;;5102777;27;43383;-72
2023/07/08 12:16:52;;;;;;;2.37;2.37;;;23.30;71.10;;;;;;5080052;27;43361;-72
2023/07/08 12:19:21;;;;;;;2.50;2.40;;;23.40;70.90;;;;;;5095749;27;43437;-71
2023/07/08 12:21:51;;;;;;;2.87;2.77;;;23.40;70.60;;;;;;5094205;27;43625;-72
2023/07/08 12:24:25;;;;;;;2.97;2.87;;;23.40;70.50;;;;;;5075065;28;44725;-73
2023/07/08 12:26:53;;;;;;;2.83;2.73;;;23.40;70.60;;;;;;5094863;27;43387;-72
2023/07/08 12:29:21;;;;;;;2.70;2.60;;;23.40;70.60;;;;;;5073264;28;43428;-72
2023/07/08 12:31:49;;;;;;;2.70;2.60;;;23.40;70.60;;;;;;5099342;27;43678;-71
2023/07/08 12:34:17;;;;;;;2.53;2.53;;;23.40;70.60;;;;;;5097750;27;43907;-72
2023/07/08 12:36:46;;;;;;;2.80;2.70;;;23.40;70.60;;;;;;5086352;27;43587;-73
2023/07/08 12:39:16;;;;;;;2.67;2.67;;;23.30;70.80;;;;;;5105854;27;43381;-72
2023/07/08 12:41:45;;;;;;;2.90;2.80;;;23.40;70.90;;;;;;5072950;28;45400;-72
2023/07/08 12:44:18;;;;;;;2.80;2.70;;;23.40;70.90;;;;;;5072170;28;44701;-72
2023/07/08 12:46:47;;;;;;;2.60;2.50;;;23.30;70.70;;;;;;5100121;27;43402;-72
2023/07/08 12:49:16;;;;;;;2.83;2.73;;;23.30;71.10;;;;;;5099368;27;44080;-72
2023/07/08 12:51:45;;;;;;;2.67;2.57;;;23.30;71.10;;;;;;5094169;27;43811;-72
2023/07/08 12:54:14;;;;;;;2.80;2.70;;;23.30;70.80;;;;;;5102010;27;43411;-72
2023/07/08 12:56:44;;;;;;;2.70;2.60;;;23.50;70.60;;;;;;5103321;27;43369;-71
2023/07/08 12:59:13;;;;;;;2.70;2.60;;;23.50;70.10;;;;;;5105505;27;43424;-72
2023/07/08 13:01:41;;;;;;;2.67;2.67;;;23.60;70.10;;;;;;5102469;27;43649;-72